sensor_id;sensor_type;location;lat;lon;timestamp;temperature;humidity
23079;DHT22;11707;50.830;4.364;2023-03-08T00:01:09;3.50;99.90
23079;DHT22;11707;50.830;4.364;2023-03-08T00:03:38;3.60;99.90
23079;DHT22;11707;50.830;4.364;2023-03-08T00:06:05;3.60;99.90
23079;DHT22;11707;50.830;4.364;2023-03-08T00:08:31;3.60;99.90
23079;DHT22;11707;50.830;4.364;2023-03-08T00:11:03;3.60;99.90
23079;DHT22;11707;50.830;4.364;2023-03-08T00:13:29;3.80;99.90
23079;DHT22;11707;50.830;4.364;2023-03-08T00:16:02;4.00;99.90
23079;DHT22;11707;50.830;4.364;2023-03-08T00:18:29;4.10;99.90
23079;DHT22;11707;50.830;4.364;2023-03-08T00:20:59;4.30;99.90
23079;DHT22;11707;50.830;4.364;2023-03-08T00:23:27;4.20;99.90
23079;DHT22;11707;50.830;4.364;2023-03-08T00:25:53;4.00;99.90
23079;DHT22;11707;50.830;4.364;2023-03-08T00:28:20;3.80;99.90
23079;DHT22;11707;50.830;4.364;2023-03-08T00:30:53;3.80;99.90
23079;DHT22;11707;50.830;4.364;2023-03-08T00:33:21;3.70;99.90
23079;DHT22;11707;50.830;4.364;2023-03-08T00:38:23;3.70;99.90
23079;DHT22;11707;50.830;4.364;2023-03-08T00:40:51;3.60;99.90
23079;DHT22;11707;50.830;4.364;2023-03-08T00:43:17;3.60;99.90
23079;DHT22;11707;50.830;4.364;2023-03-08T00:45:43;3.60;99.90
23079;DHT22;11707;50.830;4.364;2023-03-08T00:48:08;3.70;99.90
23079;DHT22;11707;50.830;4.364;2023-03-08T00:50:34;3.70;99.90
23079;DHT22;11707;50.830;4.364;2023-03-08T00:53:00;3.50;99.90
23079;DHT22;11707;50.830;4.364;2023-03-08T00:55:26;3.50;99.90
23079;DHT22;11707;50.830;4.364;2023-03-08T00:57:51;3.50;99.90
23079;DHT22;11707;50.830;4.364;2023-03-08T01:00:17;3.50;99.90
23079;DHT22;11707;50.830;4.364;2023-03-08T01:02:45;3.50;99.90
23079;DHT22;11707;50.830;4.364;2023-03-08T01:05:13;3.40;99.90
23079;DHT22;11707;50.830;4.364;2023-03-08T01:07:39;3.40;99.90
23079;DHT22;11707;50.830;4.364;2023-03-08T01:10:05;3.40;99.90
23079;DHT22;11707;50.830;4.364;2023-03-08T01:12:32;3.50;99.90
23079;DHT22;11707;50.830;4.364;2023-03-08T01:15:03;3.80;99.90
23079;DHT22;11707;50.830;4.364;2023-03-08T01:17:30;3.80;99.90
23079;DHT22;11707;50.830;4.364;2023-03-08T01:19:56;3.80;99.90
23079;DHT22;11707;50.830;4.364;2023-03-08T01:22:21;3.70;99.90
23079;DHT22;11707;50.830;4.364;2023-03-08T01:24:50;3.60;99.90
23079;DHT22;11707;50.830;4.364;2023-03-08T01:27:15;3.50;99.90
23079;DHT22;11707;50.830;4.364;2023-03-08T01:29:42;3.50;99.90
23079;DHT22;11707;50.830;4.364;2023-03-08T01:32:09;3.40;99.90
23079;DHT22;11707;50.830;4.364;2023-03-08T01:34:36;3.40;99.90
23079;DHT22;11707;50.830;4.364;2023-03-08T01:37:02;3.30;99.90
23079;DHT22;11707;50.830;4.364;2023-03-08T01:39:30;3.30;99.90
23079;DHT22;11707;50.830;4.364;2023-03-08T01:41:58;3.30;99.90
23079;DHT22;11707;50.830;4.364;2023-03-08T01:44:27;3.10;99.90
23079;DHT22;11707;50.830;4.364;2023-03-08T01:46:53;3.10;99.90
23079;DHT22;11707;50.830;4.364;2023-03-08T01:49:20;3.20;99.90
23079;DHT22;11707;50.830;4.364;2023-03-08T01:57:10;3.10;99.90
23079;DHT22;11707;50.830;4.364;2023-03-08T01:59:40;3.10;99.90
23079;DHT22;11707;50.830;4.364;2023-03-08T02:02:06;3.20;99.90
23079;DHT22;11707;50.830;4.364;2023-03-08T02:04:32;3.20;99.90
23079;DHT22;11707;50.830;4.364;2023-03-08T02:07:00;3.30;99.90
23079;DHT22;11707;50.830;4.364;2023-03-08T02:09:28;3.20;99.90
23079;DHT22;11707;50.830;4.364;2023-03-08T02:11:59;2.90;99.90
23079;DHT22;11707;50.830;4.364;2023-03-08T02:14:26;2.90;99.90
23079;DHT22;11707;50.830;4.364;2023-03-08T02:16:52;2.90;99.90
23079;DHT22;11707;50.830;4.364;2023-03-08T02:19:31;3.10;99.90
23079;DHT22;11707;50.830;4.364;2023-03-08T02:21:58;2.90;99.90
23079;DHT22;11707;50.830;4.364;2023-03-08T02:24:35;2.90;99.90
23079;DHT22;11707;50.830;4.364;2023-03-08T02:27:07;2.80;99.90
23079;DHT22;11707;50.830;4.364;2023-03-08T02:29:39;2.80;99.90
23079;DHT22;11707;50.830;4.364;2023-03-08T02:32:05;2.60;99.90
23079;DHT22;11707;50.830;4.364;2023-03-08T02:34:30;2.60;99.90
23079;DHT22;11707;50.830;4.364;2023-03-08T02:36:59;2.50;99.90
23079;DHT22;11707;50.830;4.364;2023-03-08T02:39:25;2.40;99.90
23079;DHT22;11707;50.830;4.364;2023-03-08T02:41:54;2.40;99.90
23079;DHT22;11707;50.830;4.364;2023-03-08T02:44:22;2.20;99.90
23079;DHT22;11707;50.830;4.364;2023-03-08T02:46:50;2.10;99.90
23079;DHT22;11707;50.830;4.364;2023-03-08T02:49:17;2.00;99.90
23079;DHT22;11707;50.830;4.364;2023-03-08T02:51:42;2.10;99.90
23079;DHT22;11707;50.830;4.364;2023-03-08T02:54:08;2.10;99.90
23079;DHT22;11707;50.830;4.364;2023-03-08T02:56:34;2.30;99.90
23079;DHT22;11707;50.830;4.364;2023-03-08T02:59:07;2.20;99.90
23079;DHT22;11707;50.830;4.364;2023-03-08T03:01:34;2.20;99.90
23079;DHT22;11707;50.830;4.364;2023-03-08T03:04:00;2.30;99.90
23079;DHT22;11707;50.830;4.364;2023-03-08T03:06:26;2.00;99.90
23079;DHT22;11707;50.830;4.364;2023-03-08T03:08:52;1.90;99.90
23079;DHT22;11707;50.830;4.364;2023-03-08T03:11:21;1.80;99.90
23079;DHT22;11707;50.830;4.364;2023-03-08T03:13:54;1.80;99.90
23079;DHT22;11707;50.830;4.364;2023-03-08T03:16:20;1.60;99.90
23079;DHT22;11707;50.830;4.364;2023-03-08T03:18:48;1.50;99.90
23079;DHT22;11707;50.830;4.364;2023-03-08T03:21:16;1.50;99.90
23079;DHT22;11707;50.830;4.364;2023-03-08T03:23:41;1.50;99.90
23079;DHT22;11707;50.830;4.364;2023-03-08T03:26:11;1.40;99.90
23079;DHT22;11707;50.830;4.364;2023-03-08T03:28:37;1.40;99.90
23079;DHT22;11707;50.830;4.364;2023-03-08T03:31:08;1.40;99.90
23079;DHT22;11707;50.830;4.364;2023-03-08T03:33:35;1.40;99.90
23079;DHT22;11707;50.830;4.364;2023-03-08T03:36:01;1.40;99.90
23079;DHT22;11707;50.830;4.364;2023-03-08T03:38:29;1.40;99.90
23079;DHT22;11707;50.830;4.364;2023-03-08T03:41:07;1.40;99.90
23079;DHT22;11707;50.830;4.364;2023-03-08T03:43:34;1.30;99.90
23079;DHT22;11707;50.830;4.364;2023-03-08T03:46:04;1.30;99.90
23079;DHT22;11707;50.830;4.364;2023-03-08T03:48:31;1.30;99.90
23079;DHT22;11707;50.830;4.364;2023-03-08T03:51:04;1.30;99.90
23079;DHT22;11707;50.830;4.364;2023-03-08T03:53:31;1.30;99.90
23079;DHT22;11707;50.830;4.364;2023-03-08T03:56:11;1.20;99.90
23079;DHT22;11707;50.830;4.364;2023-03-08T03:58:37;1.20;99.90
23079;DHT22;11707;50.830;4.364;2023-03-08T04:01:16;1.20;99.90
23079;DHT22;11707;50.830;4.364;2023-03-08T04:03:46;1.20;99.90
23079;DHT22;11707;50.830;4.364;2023-03-08T04:06:18;1.20;99.90
23079;DHT22;11707;50.830;4.364;2023-03-08T04:08:51;1.20;99.90
23079;DHT22;11707;50.830;4.364;2023-03-08T04:11:19;1.20;99.90
23079;DHT22;11707;50.830;4.364;2023-03-08T04:13:45;1.10;99.90
23079;DHT22;11707;50.830;4.364;2023-03-08T04:16:16;1.10;99.90
23079;DHT22;11707;50.830;4.364;2023-03-08T04:18:45;1.10;99.90
23079;DHT22;11707;50.830;4.364;2023-03-08T04:21:12;1.10;99.90
23079;DHT22;11707;50.830;4.364;2023-03-08T04:23:39;1.10;99.90
23079;DHT22;11707;50.830;4.364;2023-03-08T04:26:06;1.10;99.90
23079;DHT22;11707;50.830;4.364;2023-03-08T04:28:31;1.10;99.90
23079;DHT22;11707;50.830;4.364;2023-03-08T04:31:20;1.20;99.90
23079;DHT22;11707;50.830;4.364;2023-03-08T04:33:46;1.10;99.90
23079;DHT22;11707;50.830;4.364;2023-03-08T04:36:12;1.10;99.90
23079;DHT22;11707;50.830;4.364;2023-03-08T04:38:39;1.10;99.90
23079;DHT22;11707;50.830;4.364;2023-03-08T04:41:04;1.10;99.90
23079;DHT22;11707;50.830;4.364;2023-03-08T04:43:34;1.10;99.90
23079;DHT22;11707;50.830;4.364;2023-03-08T04:46:00;1.10;99.90
23079;DHT22;11707;50.830;4.364;2023-03-08T04:48:26;1.10;99.90
23079;DHT22;11707;50.830;4.364;2023-03-08T04:50:58;1.10;99.90
23079;DHT22;11707;50.830;4.364;2023-03-08T04:53:25;1.00;99.90
23079;DHT22;11707;50.830;4.364;2023-03-08T04:55:53;1.10;99.90
23079;DHT22;11707;50.830;4.364;2023-03-08T04:58:23;1.10;99.90
23079;DHT22;11707;50.830;4.364;2023-03-08T05:00:49;1.10;99.90
23079;DHT22;11707;50.830;4.364;2023-03-08T05:03:15;1.10;99.90
23079;DHT22;11707;50.830;4.364;2023-03-08T05:05:48;1.00;99.90
23079;DHT22;11707;50.830;4.364;2023-03-08T05:08:14;1.00;99.90
23079;DHT22;11707;50.830;4.364;2023-03-08T05:10:56;1.10;99.90
23079;DHT22;11707;50.830;4.364;2023-03-08T05:13:29;1.10;99.90
23079;DHT22;11707;50.830;4.364;2023-03-08T05:15:57;1.10;99.90
23079;DHT22;11707;50.830;4.364;2023-03-08T05:18:23;1.20;99.90
23079;DHT22;11707;50.830;4.364;2023-03-08T05:20:56;1.10;99.90
23079;DHT22;11707;50.830;4.364;2023-03-08T05:23:23;1.10;99.90
23079;DHT22;11707;50.830;4.364;2023-03-08T05:25:57;1.00;99.90
23079;DHT22;11707;50.830;4.364;2023-03-08T05:28:25;1.00;99.90
23079;DHT22;11707;50.830;4.364;2023-03-08T05:33:26;1.10;99.90
23079;DHT22;11707;50.830;4.364;2023-03-08T05:35:53;1.10;99.90
23079;DHT22;11707;50.830;4.364;2023-03-08T05:38:21;1.00;99.90
23079;DHT22;11707;50.830;4.364;2023-03-08T05:40:49;1.00;99.90
23079;DHT22;11707;50.830;4.364;2023-03-08T05:43:15;1.00;99.90
23079;DHT22;11707;50.830;4.364;2023-03-08T05:45:41;1.00;99.90
23079;DHT22;11707;50.830;4.364;2023-03-08T05:48:09;1.00;99.90
23079;DHT22;11707;50.830;4.364;2023-03-08T05:50:38;1.00;99.90
23079;DHT22;11707;50.830;4.364;2023-03-08T05:53:04;1.00;99.90
23079;DHT22;11707;50.830;4.364;2023-03-08T05:55:30;1.00;99.90
23079;DHT22;11707;50.830;4.364;2023-03-08T05:57:58;1.10;99.90
23079;DHT22;11707;50.830;4.364;2023-03-08T06:00:26;1.00;99.90
23079;DHT22;11707;50.830;4.364;2023-03-08T06:02:54;1.10;99.90
23079;DHT22;11707;50.830;4.364;2023-03-08T06:05:20;1.10;99.90
23079;DHT22;11707;50.830;4.364;2023-03-08T06:07:48;1.10;99.90
23079;DHT22;11707;50.830;4.364;2023-03-08T06:10:14;1.10;99.90
23079;DHT22;11707;50.830;4.364;2023-03-08T06:12:42;1.10;99.90
23079;DHT22;11707;50.830;4.364;2023-03-08T06:15:08;1.10;99.90
23079;DHT22;11707;50.830;4.364;2023-03-08T06:17:34;1.20;99.90
23079;DHT22;11707;50.830;4.364;2023-03-08T06:20:00;1.30;99.90
23079;DHT22;11707;50.830;4.364;2023-03-08T06:22:25;1.30;99.90
23079;DHT22;11707;50.830;4.364;2023-03-08T06:24:53;1.30;99.90
23079;DHT22;11707;50.830;4.364;2023-03-08T06:27:19;1.30;99.90
23079;DHT22;11707;50.830;4.364;2023-03-08T06:29:45;1.30;99.90
23079;DHT22;11707;50.830;4.364;2023-03-08T06:32:13;1.30;99.90
23079;DHT22;11707;50.830;4.364;2023-03-08T06:34:38;1.30;99.90
23079;DHT22;11707;50.830;4.364;2023-03-08T06:37:04;1.40;99.90
23079;DHT22;11707;50.830;4.364;2023-03-08T06:39:30;1.20;99.90
23079;DHT22;11707;50.830;4.364;2023-03-08T06:42:00;1.20;99.90
23079;DHT22;11707;50.830;4.364;2023-03-08T06:44:29;1.20;99.90
23079;DHT22;11707;50.830;4.364;2023-03-08T06:46:57;1.20;99.90
23079;DHT22;11707;50.830;4.364;2023-03-08T06:49:23;1.20;99.90
23079;DHT22;11707;50.830;4.364;2023-03-08T06:51:49;1.10;99.90
23079;DHT22;11707;50.830;4.364;2023-03-08T06:54:17;1.10;99.90
23079;DHT22;11707;50.830;4.364;2023-03-08T06:56:44;1.10;99.90
23079;DHT22;11707;50.830;4.364;2023-03-08T06:59:11;1.20;99.90
23079;DHT22;11707;50.830;4.364;2023-03-08T07:01:37;1.10;99.90
23079;DHT22;11707;50.830;4.364;2023-03-08T07:04:03;1.10;99.90
23079;DHT22;11707;50.830;4.364;2023-03-08T07:06:28;1.10;99.90
23079;DHT22;11707;50.830;4.364;2023-03-08T07:08:56;1.00;99.90
23079;DHT22;11707;50.830;4.364;2023-03-08T07:11:22;1.00;99.90
23079;DHT22;11707;50.830;4.364;2023-03-08T07:13:51;1.10;99.90
23079;DHT22;11707;50.830;4.364;2023-03-08T07:16:16;1.20;99.90
23079;DHT22;11707;50.830;4.364;2023-03-08T07:18:42;1.10;99.90
23079;DHT22;11707;50.830;4.364;2023-03-08T07:21:08;1.10;99.90
23079;DHT22;11707;50.830;4.364;2023-03-08T07:23:34;1.10;99.90
23079;DHT22;11707;50.830;4.364;2023-03-08T07:26:06;1.00;99.90
23079;DHT22;11707;50.830;4.364;2023-03-08T07:28:32;1.10;99.90
23079;DHT22;11707;50.830;4.364;2023-03-08T07:30:58;1.20;99.90
23079;DHT22;11707;50.830;4.364;2023-03-08T07:33:23;1.10;99.90
23079;DHT22;11707;50.830;4.364;2023-03-08T07:35:49;1.10;99.90
23079;DHT22;11707;50.830;4.364;2023-03-08T07:38:15;1.10;99.90
23079;DHT22;11707;50.830;4.364;2023-03-08T07:40:43;1.10;99.90
23079;DHT22;11707;50.830;4.364;2023-03-08T07:43:09;1.20;99.90
23079;DHT22;11707;50.830;4.364;2023-03-08T07:45:36;1.30;99.90
23079;DHT22;11707;50.830;4.364;2023-03-08T07:48:04;1.30;99.90
23079;DHT22;11707;50.830;4.364;2023-03-08T07:50:30;1.20;99.90
23079;DHT22;11707;50.830;4.364;2023-03-08T07:52:57;1.30;99.90
23079;DHT22;11707;50.830;4.364;2023-03-08T07:55:25;1.30;99.90
23079;DHT22;11707;50.830;4.364;2023-03-08T07:57:52;1.30;99.90
23079;DHT22;11707;50.830;4.364;2023-03-08T08:00:18;1.30;99.90
23079;DHT22;11707;50.830;4.364;2023-03-08T08:02:44;1.20;99.90
23079;DHT22;11707;50.830;4.364;2023-03-08T08:05:10;1.30;99.90
23079;DHT22;11707;50.830;4.364;2023-03-08T08:07:35;1.30;99.90
23079;DHT22;11707;50.830;4.364;2023-03-08T08:10:04;1.20;99.90
23079;DHT22;11707;50.830;4.364;2023-03-08T08:12:33;1.30;99.90
23079;DHT22;11707;50.830;4.364;2023-03-08T08:14:58;1.40;99.90
23079;DHT22;11707;50.830;4.364;2023-03-08T08:17:24;1.30;99.90
23079;DHT22;11707;50.830;4.364;2023-03-08T08:19:52;1.30;99.90
23079;DHT22;11707;50.830;4.364;2023-03-08T08:22:18;1.30;99.90
23079;DHT22;11707;50.830;4.364;2023-03-08T08:24:44;1.30;99.90
23079;DHT22;11707;50.830;4.364;2023-03-08T08:27:12;1.10;99.90
23079;DHT22;11707;50.830;4.364;2023-03-08T08:29:37;1.20;99.90
23079;DHT22;11707;50.830;4.364;2023-03-08T08:32:03;1.20;99.90
23079;DHT22;11707;50.830;4.364;2023-03-08T08:34:29;1.30;99.90
23079;DHT22;11707;50.830;4.364;2023-03-08T08:36:55;1.40;99.90
23079;DHT22;11707;50.830;4.364;2023-03-08T08:39:21;1.50;99.90
23079;DHT22;11707;50.830;4.364;2023-03-08T08:41:48;1.50;99.90
23079;DHT22;11707;50.830;4.364;2023-03-08T08:44:14;1.60;99.90
23079;DHT22;11707;50.830;4.364;2023-03-08T08:46:42;1.40;99.90
23079;DHT22;11707;50.830;4.364;2023-03-08T08:49:09;1.40;99.90
23079;DHT22;11707;50.830;4.364;2023-03-08T08:51:37;1.30;99.90
23079;DHT22;11707;50.830;4.364;2023-03-08T08:54:03;1.40;99.90
23079;DHT22;11707;50.830;4.364;2023-03-08T08:56:29;1.40;99.90
23079;DHT22;11707;50.830;4.364;2023-03-08T08:58:56;1.30;99.90
23079;DHT22;11707;50.830;4.364;2023-03-08T09:01:25;1.30;99.90
23079;DHT22;11707;50.830;4.364;2023-03-08T09:03:51;1.30;99.90
23079;DHT22;11707;50.830;4.364;2023-03-08T09:06:21;1.30;99.90
23079;DHT22;11707;50.830;4.364;2023-03-08T09:08:49;1.40;99.90
23079;DHT22;11707;50.830;4.364;2023-03-08T09:11:15;1.50;99.90
23079;DHT22;11707;50.830;4.364;2023-03-08T09:13:41;1.50;99.90
23079;DHT22;11707;50.830;4.364;2023-03-08T09:16:36;1.40;99.90
23079;DHT22;11707;50.830;4.364;2023-03-08T09:19:03;1.60;99.90
23079;DHT22;11707;50.830;4.364;2023-03-08T09:21:30;1.60;99.90
23079;DHT22;11707;50.830;4.364;2023-03-08T09:24:00;1.50;99.90
23079;DHT22;11707;50.830;4.364;2023-03-08T09:26:31;1.60;99.90
23079;DHT22;11707;50.830;4.364;2023-03-08T09:28:58;1.70;99.90
23079;DHT22;11707;50.830;4.364;2023-03-08T09:31:29;1.70;99.90
23079;DHT22;11707;50.830;4.364;2023-03-08T09:33:57;1.70;99.90
23079;DHT22;11707;50.830;4.364;2023-03-08T09:36:24;1.70;99.90
23079;DHT22;11707;50.830;4.364;2023-03-08T09:38:51;1.70;99.90
23079;DHT22;11707;50.830;4.364;2023-03-08T09:46:41;1.60;99.90
23079;DHT22;11707;50.830;4.364;2023-03-08T09:49:18;1.70;99.90
23079;DHT22;11707;50.830;4.364;2023-03-08T09:51:49;1.50;99.90
23079;DHT22;11707;50.830;4.364;2023-03-08T09:54:20;1.60;99.90
23079;DHT22;11707;50.830;4.364;2023-03-08T09:56:49;1.60;99.90
23079;DHT22;11707;50.830;4.364;2023-03-08T09:59:34;1.50;99.90
23079;DHT22;11707;50.830;4.364;2023-03-08T10:10:29;1.70;99.90
23079;DHT22;11707;50.830;4.364;2023-03-08T10:13:18;1.80;99.90
23079;DHT22;11707;50.830;4.364;2023-03-08T10:15:50;1.70;99.90
23079;DHT22;11707;50.830;4.364;2023-03-08T10:18:29;1.70;99.90
23079;DHT22;11707;50.830;4.364;2023-03-08T10:21:00;1.70;99.90
23079;DHT22;11707;50.830;4.364;2023-03-08T10:23:31;1.90;99.90
23079;DHT22;11707;50.830;4.364;2023-03-08T10:26:07;2.00;99.90
23079;DHT22;11707;50.830;4.364;2023-03-08T10:28:34;2.00;99.90
23079;DHT22;11707;50.830;4.364;2023-03-08T10:31:01;1.80;99.90
23079;DHT22;11707;50.830;4.364;2023-03-08T10:33:34;1.90;99.90
23079;DHT22;11707;50.830;4.364;2023-03-08T10:36:21;1.90;99.90
23079;DHT22;11707;50.830;4.364;2023-03-08T10:39:04;2.00;99.90
23079;DHT22;11707;50.830;4.364;2023-03-08T10:41:31;1.90;99.90
23079;DHT22;11707;50.830;4.364;2023-03-08T10:43:57;2.00;99.90
23079;DHT22;11707;50.830;4.364;2023-03-08T10:46:26;1.90;99.90
23079;DHT22;11707;50.830;4.364;2023-03-08T10:48:53;2.00;99.90
23079;DHT22;11707;50.830;4.364;2023-03-08T10:51:22;2.00;99.90
23079;DHT22;11707;50.830;4.364;2023-03-08T10:53:56;2.10;99.90
23079;DHT22;11707;50.830;4.364;2023-03-08T10:58:59;2.20;99.90
23079;DHT22;11707;50.830;4.364;2023-03-08T11:01:29;2.20;99.90
23079;DHT22;11707;50.830;4.364;2023-03-08T11:03:59;2.30;99.90
23079;DHT22;11707;50.830;4.364;2023-03-08T11:06:27;2.20;99.90
23079;DHT22;11707;50.830;4.364;2023-03-08T11:09:00;2.30;99.90
23079;DHT22;11707;50.830;4.364;2023-03-08T11:11:27;2.40;99.90
23079;DHT22;11707;50.830;4.364;2023-03-08T11:13:54;2.30;99.90
23079;DHT22;11707;50.830;4.364;2023-03-08T11:16:41;2.20;99.90
23079;DHT22;11707;50.830;4.364;2023-03-08T11:30:13;2.20;99.90
23079;DHT22;11707;50.830;4.364;2023-03-08T11:38:29;2.40;99.90
23079;DHT22;11707;50.830;4.364;2023-03-08T11:46:52;2.20;99.90
23079;DHT22;11707;50.830;4.364;2023-03-08T11:57:15;2.50;99.90
23079;DHT22;11707;50.830;4.364;2023-03-08T12:02:24;2.50;99.90
23079;DHT22;11707;50.830;4.364;2023-03-08T12:05:29;2.60;99.90
23079;DHT22;11707;50.830;4.364;2023-03-08T12:10:57;2.50;99.90
23079;DHT22;11707;50.830;4.364;2023-03-08T12:13:46;2.50;99.90
23079;DHT22;11707;50.830;4.364;2023-03-08T12:16:49;2.70;99.90
23079;DHT22;11707;50.830;4.364;2023-03-08T12:27:37;2.80;99.90
23079;DHT22;11707;50.830;4.364;2023-03-08T12:32:39;2.70;99.90
23079;DHT22;11707;50.830;4.364;2023-03-08T12:35:30;2.60;99.90
23079;DHT22;11707;50.830;4.364;2023-03-08T12:38:04;2.60;99.90
23079;DHT22;11707;50.830;4.364;2023-03-08T12:40:40;2.60;99.90
23079;DHT22;11707;50.830;4.364;2023-03-08T12:43:33;2.70;99.90
23079;DHT22;11707;50.830;4.364;2023-03-08T12:46:06;2.80;99.90
23079;DHT22;11707;50.830;4.364;2023-03-08T12:53:57;3.10;99.90
23079;DHT22;11707;50.830;4.364;2023-03-08T12:57:13;2.90;99.90
23079;DHT22;11707;50.830;4.364;2023-03-08T13:04:32;2.80;99.90
23079;DHT22;11707;50.830;4.364;2023-03-08T13:14:45;2.80;99.90
23079;DHT22;11707;50.830;4.364;2023-03-08T13:17:48;2.80;99.90
23079;DHT22;11707;50.830;4.364;2023-03-08T13:20:17;2.90;99.90
23079;DHT22;11707;50.830;4.364;2023-03-08T13:28:09;2.80;99.90
23079;DHT22;11707;50.830;4.364;2023-03-08T13:30:44;2.80;99.90
23079;DHT22;11707;50.830;4.364;2023-03-08T13:33:21;2.90;99.90
23079;DHT22;11707;50.830;4.364;2023-03-08T13:35:58;2.90;99.90
23079;DHT22;11707;50.830;4.364;2023-03-08T13:38:26;3.00;99.90
23079;DHT22;11707;50.830;4.364;2023-03-08T13:40:56;3.00;99.90
23079;DHT22;11707;50.830;4.364;2023-03-08T13:43:24;2.90;99.90
23079;DHT22;11707;50.830;4.364;2023-03-08T13:45:53;3.00;99.90
23079;DHT22;11707;50.830;4.364;2023-03-08T13:48:25;3.10;99.90
23079;DHT22;11707;50.830;4.364;2023-03-08T13:50:53;3.20;99.90
23079;DHT22;11707;50.830;4.364;2023-03-08T13:53:22;3.20;99.90
23079;DHT22;11707;50.830;4.364;2023-03-08T13:55:55;3.10;99.90
23079;DHT22;11707;50.830;4.364;2023-03-08T13:58:40;3.20;99.90
23079;DHT22;11707;50.830;4.364;2023-03-08T14:01:13;3.20;99.90
23079;DHT22;11707;50.830;4.364;2023-03-08T14:03:41;3.20;99.90
23079;DHT22;11707;50.830;4.364;2023-03-08T14:06:30;3.20;99.90
23079;DHT22;11707;50.830;4.364;2023-03-08T14:09:00;3.20;99.90
23079;DHT22;11707;50.830;4.364;2023-03-08T14:11:30;3.20;99.90
23079;DHT22;11707;50.830;4.364;2023-03-08T14:13:58;3.10;99.90
23079;DHT22;11707;50.830;4.364;2023-03-08T14:16:31;3.10;99.90
23079;DHT22;11707;50.830;4.364;2023-03-08T14:18:59;3.10;99.90
23079;DHT22;11707;50.830;4.364;2023-03-08T14:21:28;3.00;99.90
23079;DHT22;11707;50.830;4.364;2023-03-08T14:23:59;3.00;99.90
23079;DHT22;11707;50.830;4.364;2023-03-08T14:26:35;3.20;99.90
23079;DHT22;11707;50.830;4.364;2023-03-08T14:29:18;3.20;99.90
23079;DHT22;11707;50.830;4.364;2023-03-08T14:34:23;3.30;99.90
23079;DHT22;11707;50.830;4.364;2023-03-08T14:36:58;3.40;99.90
23079;DHT22;11707;50.830;4.364;2023-03-08T14:39:28;3.30;99.90
23079;DHT22;11707;50.830;4.364;2023-03-08T14:41:55;3.10;99.90
23079;DHT22;11707;50.830;4.364;2023-03-08T14:44:26;3.30;99.90
23079;DHT22;11707;50.830;4.364;2023-03-08T14:46:52;3.20;99.90
23079;DHT22;11707;50.830;4.364;2023-03-08T14:49:28;3.20;99.90
23079;DHT22;11707;50.830;4.364;2023-03-08T14:51:54;3.30;99.90
23079;DHT22;11707;50.830;4.364;2023-03-08T14:54:34;3.20;99.90
23079;DHT22;11707;50.830;4.364;2023-03-08T14:57:17;3.20;99.90
23079;DHT22;11707;50.830;4.364;2023-03-08T14:59:46;3.30;99.90
23079;DHT22;11707;50.830;4.364;2023-03-08T15:02:13;3.30;99.90
23079;DHT22;11707;50.830;4.364;2023-03-08T15:04:40;3.30;99.90
23079;DHT22;11707;50.830;4.364;2023-03-08T15:07:06;3.40;99.90
23079;DHT22;11707;50.830;4.364;2023-03-08T15:09:33;3.50;99.90
23079;DHT22;11707;50.830;4.364;2023-03-08T15:11:59;3.60;99.90
23079;DHT22;11707;50.830;4.364;2023-03-08T15:14:26;3.40;99.90
23079;DHT22;11707;50.830;4.364;2023-03-08T15:16:55;3.30;99.90
23079;DHT22;11707;50.830;4.364;2023-03-08T15:19:23;3.40;99.90
23079;DHT22;11707;50.830;4.364;2023-03-08T15:21:51;3.40;99.90
23079;DHT22;11707;50.830;4.364;2023-03-08T15:24:17;3.20;99.90
23079;DHT22;11707;50.830;4.364;2023-03-08T15:26:44;3.10;99.90
23079;DHT22;11707;50.830;4.364;2023-03-08T15:29:27;3.20;99.90
23079;DHT22;11707;50.830;4.364;2023-03-08T15:31:55;3.30;99.90
23079;DHT22;11707;50.830;4.364;2023-03-08T15:34:21;3.20;99.90
23079;DHT22;11707;50.830;4.364;2023-03-08T15:36:48;3.10;99.90
23079;DHT22;11707;50.830;4.364;2023-03-08T15:39:14;3.10;99.90
23079;DHT22;11707;50.830;4.364;2023-03-08T15:41:40;3.20;99.90
23079;DHT22;11707;50.830;4.364;2023-03-08T15:44:06;3.00;99.90
23079;DHT22;11707;50.830;4.364;2023-03-08T15:46:32;3.10;99.90
23079;DHT22;11707;50.830;4.364;2023-03-08T15:49:00;3.00;99.90
23079;DHT22;11707;50.830;4.364;2023-03-08T15:51:32;3.20;99.90
23079;DHT22;11707;50.830;4.364;2023-03-08T15:53:58;3.50;99.90
23079;DHT22;11707;50.830;4.364;2023-03-08T15:56:25;3.40;99.90
23079;DHT22;11707;50.830;4.364;2023-03-08T15:58:51;3.30;99.90
23079;DHT22;11707;50.830;4.364;2023-03-08T16:01:17;3.50;99.90
23079;DHT22;11707;50.830;4.364;2023-03-08T16:03:46;3.50;99.90
23079;DHT22;11707;50.830;4.364;2023-03-08T16:06:13;3.60;99.90
23079;DHT22;11707;50.830;4.364;2023-03-08T16:08:39;3.70;99.90
23079;DHT22;11707;50.830;4.364;2023-03-08T16:11:07;3.80;99.90
23079;DHT22;11707;50.830;4.364;2023-03-08T16:13:33;3.70;99.90
23079;DHT22;11707;50.830;4.364;2023-03-08T16:16:00;3.60;99.90
23079;DHT22;11707;50.830;4.364;2023-03-08T16:18:28;3.60;99.90
23079;DHT22;11707;50.830;4.364;2023-03-08T16:20:55;3.60;99.90
23079;DHT22;11707;50.830;4.364;2023-03-08T16:23:21;3.60;99.90
23079;DHT22;11707;50.830;4.364;2023-03-08T16:26:00;3.60;99.90
23079;DHT22;11707;50.830;4.364;2023-03-08T16:28:30;3.60;99.90
23079;DHT22;11707;50.830;4.364;2023-03-08T16:30:56;3.60;99.90
23079;DHT22;11707;50.830;4.364;2023-03-08T16:33:24;3.60;99.90
23079;DHT22;11707;50.830;4.364;2023-03-08T16:35:51;3.70;99.90
23079;DHT22;11707;50.830;4.364;2023-03-08T16:38:22;3.70;99.90
23079;DHT22;11707;50.830;4.364;2023-03-08T16:40:48;3.70;99.90
23079;DHT22;11707;50.830;4.364;2023-03-08T16:43:14;3.80;99.90
23079;DHT22;11707;50.830;4.364;2023-03-08T16:45:52;3.50;99.90
23079;DHT22;11707;50.830;4.364;2023-03-08T16:48:18;3.50;99.90
23079;DHT22;11707;50.830;4.364;2023-03-08T16:50:50;3.50;99.90
23079;DHT22;11707;50.830;4.364;2023-03-08T16:53:16;3.50;99.90
23079;DHT22;11707;50.830;4.364;2023-03-08T16:55:42;3.40;99.90
23079;DHT22;11707;50.830;4.364;2023-03-08T16:58:07;3.40;99.90
23079;DHT22;11707;50.830;4.364;2023-03-08T17:00:33;3.40;99.90
23079;DHT22;11707;50.830;4.364;2023-03-08T17:02:59;3.40;99.90
23079;DHT22;11707;50.830;4.364;2023-03-08T17:05:25;3.40;99.90
23079;DHT22;11707;50.830;4.364;2023-03-08T17:07:51;3.30;99.90
23079;DHT22;11707;50.830;4.364;2023-03-08T17:10:16;3.40;99.90
23079;DHT22;11707;50.830;4.364;2023-03-08T17:12:42;3.40;99.90
23079;DHT22;11707;50.830;4.364;2023-03-08T17:15:09;3.40;99.90
23079;DHT22;11707;50.830;4.364;2023-03-08T17:17:37;3.40;99.90
23079;DHT22;11707;50.830;4.364;2023-03-08T17:20:04;3.40;99.90
23079;DHT22;11707;50.830;4.364;2023-03-08T17:22:30;3.30;99.90
23079;DHT22;11707;50.830;4.364;2023-03-08T17:24:58;3.30;99.90
23079;DHT22;11707;50.830;4.364;2023-03-08T17:27:24;3.40;99.90
23079;DHT22;11707;50.830;4.364;2023-03-08T17:29:50;3.40;99.90
23079;DHT22;11707;50.830;4.364;2023-03-08T17:32:17;3.30;99.90
23079;DHT22;11707;50.830;4.364;2023-03-08T17:34:43;3.30;99.90
23079;DHT22;11707;50.830;4.364;2023-03-08T17:37:09;3.40;99.90